createdAt,value
2022-11-16T00:04:06.689Z,10.32
2022-11-16T00:09:34.138Z,10.37
2022-11-16T00:15:17.306Z,10.36
2022-11-16T00:20:40.634Z,10.40
2022-11-16T00:26:23.279Z,10.40
2022-11-16T00:32:06.872Z,10.39
2022-11-16T00:37:30.756Z,10.37
2022-11-16T00:42:58.754Z,10.34
2022-11-16T00:48:25.477Z,10.33
2022-11-16T00:53:53.015Z,10.36
2022-11-16T00:59:16.279Z,10.30
2022-11-16T01:04:43.098Z,10.33
2022-11-16T01:10:25.985Z,10.29
2022-11-16T01:15:48.923Z,10.24
2022-11-16T01:21:11.419Z,10.27
2022-11-16T01:26:34.646Z,10.29
2022-11-16T01:31:59.884Z,10.29
2022-11-16T01:37:24.040Z,10.26
2022-11-16T01:42:47.151Z,10.23
2022-11-16T01:48:14.749Z,10.22
2022-11-16T01:53:38.426Z,10.19
2022-11-16T01:59:02.924Z,10.12
2022-11-16T02:04:25.235Z,10.12
2022-11-16T02:10:28.421Z,10.15
2022-11-16T02:16:23.834Z,10.15
2022-11-16T02:22:18.231Z,10.11
2022-11-16T02:28:17.864Z,10.09
2022-11-16T02:33:45.589Z,10.11
2022-11-16T02:39:16.526Z,10.07
2022-11-16T02:44:45.753Z,10.01
2022-11-16T02:50:20.067Z,10.05
2022-11-16T02:55:50.144Z,10.06
2022-11-16T03:01:25.752Z,10.04
2022-11-16T03:06:50.485Z,10.02
2022-11-16T03:12:19.190Z,10.07
2022-11-16T03:17:46.343Z,10.08
2022-11-16T03:23:11.869Z,10.03
2022-11-16T03:29:11.568Z,9.96
2022-11-16T03:34:36.975Z,9.94
2022-11-16T03:40:02.708Z,9.90
2022-11-16T03:45:28.415Z,9.85
2022-11-16T03:50:52.704Z,9.75
2022-11-16T03:56:16.463Z,9.72
2022-11-16T04:01:44.362Z,9.69
2022-11-16T04:07:27.533Z,9.60
2022-11-16T04:13:31.370Z,9.50
2022-11-16T04:19:13.010Z,9.43
2022-11-16T04:24:38.847Z,9.44
2022-11-16T04:30:03.447Z,9.44
2022-11-16T04:35:44.960Z,9.40
2022-11-16T04:41:28.292Z,9.41
2022-11-16T04:47:07.577Z,9.46
2022-11-16T04:52:31.427Z,9.45
2022-11-16T04:57:55.261Z,9.41
2022-11-16T05:03:17.757Z,9.39
2022-11-16T05:08:40.581Z,9.40
2022-11-16T05:14:02.673Z,9.40
2022-11-16T05:19:44.133Z,9.38
2022-11-16T05:25:08.527Z,9.39
2022-11-16T05:30:31.058Z,9.40
2022-11-16T05:35:54.859Z,9.28
2022-11-16T05:41:37.894Z,9.30
2022-11-16T05:47:01.292Z,9.31
2022-11-16T05:52:23.903Z,9.24
2022-11-16T05:57:49.128Z,9.13
2022-11-16T06:03:11.470Z,9.11
2022-11-16T06:08:34.674Z,9.11
2022-11-16T06:14:20.024Z,9.12
2022-11-16T06:19:48.348Z,9.24
2022-11-16T06:25:11.521Z,9.37
2022-11-16T06:30:39.437Z,9.45
2022-11-16T06:36:01.722Z,9.53
2022-11-16T06:41:23.672Z,9.61
2022-11-16T06:46:46.053Z,9.68
2022-11-16T06:52:09.091Z,9.71
2022-11-16T06:57:31.112Z,9.71
2022-11-16T07:03:33.577Z,9.76
2022-11-16T07:10:16.753Z,9.77
2022-11-16T07:16:45.336Z,9.69
2022-11-16T07:22:08.804Z,9.63
2022-11-16T07:27:31.816Z,9.62
2022-11-16T07:32:59.863Z,9.57
2022-11-16T07:38:41.847Z,9.56
2022-11-16T07:44:28.840Z,9.53
2022-11-16T07:51:13.858Z,9.51
2022-11-16T07:57:25.163Z,9.54
2022-11-16T08:03:32.631Z,9.44
2022-11-16T08:09:28.175Z,9.42
2022-11-16T08:15:58.688Z,9.44
2022-11-16T08:22:06.087Z,9.47
2022-11-16T08:28:18.442Z,9.48
2022-11-16T08:34:06.385Z,9.59
2022-11-16T08:40:42.695Z,9.63
2022-11-16T08:47:06.079Z,9.63
2022-11-16T08:53:19.347Z,9.61
2022-11-16T08:59:02.196Z,9.61
2022-11-16T09:04:26.118Z,9.56
2022-11-16T09:09:49.288Z,9.55
2022-11-16T09:15:11.554Z,9.53
2022-11-16T09:20:58.035Z,9.52
2022-11-16T09:27:20.338Z,9.48
2022-11-16T09:34:03.802Z,9.51
2022-11-16T09:40:46.842Z,9.54
2022-11-16T09:47:30.056Z,9.47
2022-11-16T09:53:59.540Z,9.41
2022-11-16T09:59:30.480Z,9.37
2022-11-16T10:05:03.393Z,9.30
2022-11-16T10:10:39.168Z,9.25
2022-11-16T10:16:31.379Z,9.24
2022-11-16T10:22:35.838Z,9.02
2022-11-16T10:28:35.355Z,8.83
2022-11-16T10:34:25.348Z,8.79
2022-11-16T10:39:54.310Z,8.81
2022-11-16T10:46:00.463Z,8.78
2022-11-16T10:51:47.577Z,8.76
2022-11-16T10:58:14.914Z,8.65
2022-11-16T11:05:05.818Z,8.66
2022-11-16T11:11:47.570Z,8.46
2022-11-16T11:17:58.840Z,8.27
2022-11-16T11:24:44.313Z,8.10
2022-11-16T11:31:06.558Z,7.97
2022-11-16T11:37:41.606Z,7.86
2022-11-16T11:43:47.451Z,7.59
2022-11-16T11:50:06.698Z,7.15
2022-11-16T11:55:35.949Z,6.82
2022-11-16T12:01:51.687Z,6.61
2022-11-16T12:08:29.134Z,6.39
2022-11-16T12:14:24.710Z,6.24
2022-11-16T12:20:38.567Z,6.12
2022-11-16T12:26:48.646Z,5.99
2022-11-16T12:33:35.462Z,5.88
2022-11-16T12:40:25.018Z,5.81
2022-11-16T12:47:25.326Z,5.81
2022-11-16T12:54:19.698Z,5.82
2022-11-16T13:01:02.532Z,5.85
2022-11-16T13:08:01.303Z,5.90
2022-11-16T13:14:20.497Z,5.95
2022-11-16T13:21:04.892Z,6.15
2022-11-16T13:27:56.105Z,6.21
2022-11-16T13:34:39.428Z,6.21
2022-11-16T13:41:22.950Z,6.22
2022-11-16T13:48:11.618Z,6.23
2022-11-16T13:54:55.382Z,6.28
2022-11-16T14:01:48.762Z,6.30
2022-11-16T14:08:31.848Z,6.37
2022-11-16T14:15:13.351Z,6.38
2022-11-16T14:21:18.670Z,6.28
2022-11-16T14:28:20.952Z,6.17
2022-11-16T14:34:13.489Z,6.10
2022-11-16T14:40:59.463Z,6.13
2022-11-16T14:47:10.101Z,6.10
2022-11-16T14:53:32.983Z,5.99
2022-11-16T15:00:23.087Z,5.99
2022-11-16T15:07:07.636Z,6.05
2022-11-16T15:13:51.327Z,6.12
2022-11-16T15:20:37.779Z,6.18
2022-11-16T16:08:55.800Z,6.05
2022-11-16T16:15:59.345Z,5.91
2022-11-16T16:22:47.512Z,5.82
2022-11-16T16:29:30.821Z,5.80
2022-11-16T16:36:02.522Z,5.81
2022-11-16T16:42:47.002Z,5.77
2022-11-16T16:48:29.768Z,5.80
2022-11-16T16:53:52.925Z,5.77
2022-11-16T16:59:15.383Z,5.69
2022-11-16T17:05:17.969Z,5.59
2022-11-16T17:11:01.837Z,5.53
2022-11-16T17:17:04.134Z,5.53
2022-11-16T17:23:47.284Z,5.55
2022-11-16T17:30:30.736Z,5.50
2022-11-16T17:36:59.074Z,5.43
2022-11-16T17:43:22.240Z,5.41
2022-11-16T17:49:45.696Z,5.44
2022-11-16T17:55:30.185Z,5.42
2022-11-16T18:00:52.799Z,5.36
2022-11-16T18:06:20.043Z,5.34
2022-11-16T18:11:49.040Z,5.37
2022-11-16T18:17:35.057Z,5.33
2022-11-16T18:23:57.238Z,5.27
2022-11-16T18:30:21.846Z,5.16
2022-11-16T18:37:04.706Z,5.04
2022-11-16T18:43:47.546Z,4.88
2022-11-16T18:50:32.114Z,4.76
2022-11-16T18:57:14.873Z,4.64
2022-11-16T19:03:58.220Z,4.48
2022-11-16T19:10:36.960Z,4.31
2022-11-16T19:17:19.935Z,4.16
2022-11-16T19:24:05.786Z,4.01
2022-11-16T19:30:52.043Z,3.89
2022-11-16T19:37:35.405Z,3.77
2022-11-16T19:43:58.575Z,3.65
2022-11-16T19:50:41.857Z,3.51
2022-11-16T19:57:06.466Z,3.39
2022-11-16T20:03:49.796Z,3.15
2022-11-16T20:10:33.340Z,2.94
2022-11-16T20:17:16.446Z,2.87
2022-11-16T20:24:04.676Z,2.76
2022-11-16T20:30:49.327Z,2.71
2022-11-16T20:37:19.183Z,2.71
2022-11-16T20:43:45.998Z,2.65
2022-11-16T20:49:52.221Z,2.62
2022-11-16T20:56:38.743Z,2.68
2022-11-16T21:03:22.200Z,2.68
2022-11-16T21:09:51.931Z,2.64
2022-11-16T21:16:17.167Z,2.65
2022-11-16T21:23:00.636Z,2.54
2022-11-16T21:29:23.166Z,2.46
2022-11-16T21:34:54.465Z,2.46
2022-11-16T21:40:19.479Z,2.42
2022-11-16T21:45:47.355Z,2.34
2022-11-16T21:51:15.523Z,2.28
2022-11-16T21:56:40.693Z,2.30
2022-11-16T22:02:03.471Z,2.30
2022-11-16T22:07:39.535Z,2.26
2022-11-16T22:13:03.352Z,2.28
2022-11-16T22:18:26.654Z,2.33
2022-11-16T22:23:48.907Z,2.29
2022-11-16T22:29:12.726Z,2.17
2022-11-16T22:41:13.205Z,3.42
2022-11-16T22:47:09.279Z,4.26
2022-11-16T22:52:47.192Z,4.55
2022-11-16T22:59:06.669Z,4.91
2022-11-16T23:05:13.306Z,4.91
2022-11-16T23:10:56.338Z,5.56
2022-11-16T23:16:34.157Z,6.02
2022-11-16T23:22:14.581Z,6.29
2022-11-16T23:27:56.935Z,5.98
2022-11-16T23:33:39.422Z,5.16
2022-11-16T23:39:06.833Z,4.41
2022-11-16T23:44:50.625Z,3.90
2022-11-16T23:50:20.070Z,3.43
2022-11-16T23:55:44.335Z,3.07
